Weather reports worldwide

Advertisment
Dunstaffnage, United Kingdom (99006): temperature & dewpoint: 20.03.2019 19:00:00 - 26.03.2019 19:00:00 (GMT)Dunstaffnage, United Kingdom (99006): temperature -20cm: 20.03.2019 19:00:00 - 26.03.2019 19:00:00 (GMT)Dunstaffnage, United Kingdom (99006): wind speed & gusts: 20.03.2019 19:00:00 - 26.03.2019 19:00:00 (GMT)Dunstaffnage, United Kingdom (99006): wind direction: 20.03.2019 19:00:00 - 26.03.2019 19:00:00 (GMT)Dunstaffnage, United Kingdom (99006): precipitation: 20.03.2019 19:00:00 - 26.03.2019 19:00:00 (GMT)
Date & Time tt [°C] td [°C] tt -20cm [°C] ff [km/h] ff [kn] fx [km/h] fx [kn] dd rr [mm]
26.03.2019 19:00:00 9,3 6,8 - 18 10 - - WNW 0,0
26.03.2019 18:00:00 9,3 6,9 - 21 11 - - W 0,0
26.03.2019 17:00:00 9,5 7,0 - 16 9 - - W 0,0
26.03.2019 16:00:00 9,7 6,8 - 16 9 - - W 0,0
26.03.2019 15:00:00 9,7 6,8 - 15 8 - - W 0,0
26.03.2019 14:00:00 9,9 6,8 - 15 8 - - WSW 0,0
26.03.2019 13:00:00 9,9 6,5 - 22 12 - - WSW 0,0
26.03.2019 12:00:00 9,5 6,4 - 21 11 - - WSW 0,0
26.03.2019 11:00:00 9,3 6,5 - 22 12 - - WSW 0,0
26.03.2019 10:00:00 9,3 5,7 - 21 11 - - WSW 0,0
26.03.2019 09:00:00 8,0 6,3 7,2 16 9 - - WSW 0,0
26.03.2019 08:00:00 8,1 5,2 - 16 9 - - SW 0,0
26.03.2019 07:00:00 7,7 5,1 - 13 7 - - WSW 0,0
26.03.2019 06:00:00 7,4 4,7 - 11 6 - - WSW 0,0
26.03.2019 05:00:00 7,5 3,9 - 16 9 - - WSW 0,0
26.03.2019 04:00:00 7,8 4,2 - 11 6 - - SW 0,0
26.03.2019 03:00:00 8,0 3,8 - 16 9 - - WSW 0,0
26.03.2019 02:00:00 7,7 5,1 - 13 7 - - WSW 0,0
26.03.2019 01:00:00 7,9 5,1 - 13 7 - - WSW 0,0
26.03.2019 00:00:00 7,8 5,4 - 9 5 - - SW 0,0
25.03.2019 23:00:00 7,8 5,1 - 9 5 - - WSW 0,0
25.03.2019 22:00:00 7,8 4,9 - 11 6 - - SW 0,0
25.03.2019 21:00:00 8,0 5,5 - 9 5 - - W 0,0
25.03.2019 20:00:00 7,9 5,8 - 11 6 - - WSW 0,0
25.03.2019 19:00:00 8,3 5,4 - 8 4 - - SW 0,0
25.03.2019 18:00:00 8,8 5,1 - 9 5 - - W 0,0
25.03.2019 17:00:00 9,5 5,0 - 16 9 - - W 0,0
25.03.2019 16:00:00 9,4 4,6 - 21 11 - - W 0,0
25.03.2019 15:00:00 10,7 5,8 - 16 9 - - W 0,0
25.03.2019 14:00:00 9,8 4,7 - 18 10 - - W 0,0
25.03.2019 13:00:00 9,3 3,6 - 22 12 - - W 0,0
25.03.2019 12:00:00 9,4 4,5 - 16 9 - - W 0,0
25.03.2019 11:00:00 8,5 4,1 - 16 9 - - W 0,0
25.03.2019 10:00:00 7,9 4,0 - 9 5 - - W 0,0
25.03.2019 09:00:00 7,2 3,3 6,5 13 7 - - W 0,0
25.03.2019 08:00:00 6,8 2,0 - 13 7 - - W 0,0
25.03.2019 07:00:00 6,6 2,3 - 13 7 - - NW 0,0
25.03.2019 06:00:00 6,5 2,0 - 15 8 - - W 0,0
25.03.2019 05:00:00 6,4 1,9 - 15 8 - - WNW 0,0
25.03.2019 04:00:00 5,9 1,8 - 11 6 - - W 0,0
25.03.2019 03:00:00 6,1 2,0 - 21 11 - - WNW 0,0
25.03.2019 02:00:00 6,2 1,8 - 11 6 - - WNW 0,0
25.03.2019 01:00:00 6,9 2,1 - 29 16 52 28 WNW 0,0
25.03.2019 00:00:00 6,8 2,3 - 37 20 50 27 WNW 0,0
24.03.2019 23:00:00 7,0 2,0 - 28 15 - - WNW 0,0
24.03.2019 22:00:00 6,6 2,3 - 29 16 46 25 WNW 0,0
24.03.2019 21:00:00 6,4 1,5 - 22 12 46 25 WNW 0,0
24.03.2019 20:00:00 6,5 1,7 - 26 14 52 28 WNW 0,0
24.03.2019 19:00:00 6,9 1,9 - 24 13 - - WNW 0,0
24.03.2019 18:00:00 6,2 2,7 - 18 10 46 25 W 0,2
24.03.2019 17:00:00 7,4 2,9 - 28 15 57 31 W 0,0
24.03.2019 16:00:00 7,3 3,4 - 31 17 59 32 W 0,2
24.03.2019 15:00:00 7,8 3,3 - 29 16 63 34 W 0,2
24.03.2019 14:00:00 8,4 3,3 - 35 19 61 33 W 0,0
24.03.2019 13:00:00 8,0 4,3 - 34 18 52 28 W 0,2
24.03.2019 12:00:00 7,7 5,1 - 29 16 59 32 W 0,2
24.03.2019 11:00:00 7,4 4,6 - 37 20 59 32 W 0,2
24.03.2019 10:00:00 7,5 5,1 - 26 14 50 27 WSW 0,2
24.03.2019 09:00:00 6,5 4,6 6,9 28 15 - - WSW 0,8
24.03.2019 08:00:00 6,7 4,5 - 29 16 - - WSW 0,4
24.03.2019 07:00:00 5,9 4,1 - 24 13 48 26 WSW 1,0
24.03.2019 06:00:00 6,7 3,8 - 31 17 57 31 WSW 0,0
24.03.2019 05:00:00 6,6 3,7 - 21 11 - - WSW 0,0
24.03.2019 04:00:00 5,8 3,4 - 16 9 - - WSW 0,0
24.03.2019 03:00:00 5,2 3,6 - 24 13 68 37 WSW 1,0
24.03.2019 02:00:00 5,9 3,5 - 18 10 - - WSW 0,2
24.03.2019 01:00:00 4,7 3,1 - 28 15 50 27 SW 1,4
24.03.2019 00:00:00 5,0 2,4 - 8 4 - - SW 0,0
23.03.2019 23:00:00 5,6 3,9 - 4 2 - - SE 0,0
23.03.2019 22:00:00 4,7 3,0 - 13 7 - - SW 0,6
23.03.2019 21:00:00 5,0 3,1 - 15 8 - - WSW 0,8
23.03.2019 20:00:00 5,9 3,0 - 15 8 - - SW 0,2
23.03.2019 19:00:00 5,8 3,6 - 8 4 52 28 SW 0,4
23.03.2019 18:00:00 7,4 3,6 - 15 8 - - SW 0,0
23.03.2019 17:00:00 8,1 2,1 - 21 11 - - WSW 0,0
23.03.2019 16:00:00 8,6 2,1 - 16 9 - - SW 0,0
23.03.2019 15:00:00 8,5 2,6 - 18 10 - - SW 0,0
23.03.2019 14:00:00 9,2 2,2 - 22 12 - - W 0,0
23.03.2019 13:00:00 9,6 2,6 - 24 13 - - W 0,0
23.03.2019 12:00:00 8,9 1,8 - 28 15 - - W 0,0
23.03.2019 11:00:00 8,7 2,4 - 26 14 - - W 0,0
23.03.2019 10:00:00 7,7 2,4 - 22 12 - - W 0,0
23.03.2019 09:00:00 6,6 3,6 7,2 15 8 - - W 0,2
23.03.2019 08:00:00 6,3 1,4 - 21 11 52 28 WSW 0,2
23.03.2019 07:00:00 4,8 1,6 - 39 21 63 34 W 0,0
23.03.2019 06:00:00 5,9 0,5 - 26 14 57 31 W 0,0
23.03.2019 05:00:00 5,1 1,5 - 21 11 - - WSW 0,0
23.03.2019 04:00:00 5,0 1,5 - 24 13 - - WSW 0,0
23.03.2019 03:00:00 4,6 1,1 - 16 9 46 25 WSW 0,0
23.03.2019 02:00:00 4,6 0,6 - 15 8 - - SW 0,0
23.03.2019 01:00:00 4,5 0,3 - 18 10 - - SW 0,0
23.03.2019 00:00:00 4,2 2,2 - 15 8 59 32 WSW 0,6
22.03.2019 23:00:00 5,8 1,1 - 24 13 - - WSW 0,2
22.03.2019 22:00:00 5,3 2,2 - 18 10 63 34 SW 0,4
22.03.2019 21:00:00 6,6 1,4 - 26 14 48 26 WSW 0,0
22.03.2019 20:00:00 7,4 0,7 - 34 18 57 31 WSW 0,0
22.03.2019 19:00:00 6,5 3,3 - 18 10 55 30 SW 0,0
22.03.2019 18:00:00 6,6 3,9 - 41 22 72 39 WSW 0,2
22.03.2019 17:00:00 7,6 4,6 - 26 14 50 27 WSW 0,6
22.03.2019 16:00:00 8,7 4,2 - 29 16 57 31 WSW 0,4
22.03.2019 15:00:00 10,0 5,9 - 28 15 48 26 WSW 0,0
22.03.2019 14:00:00 9,8 6,2 - 26 14 - - WSW 0,0
22.03.2019 13:00:00 8,8 7,1 - 22 12 - - SW 0,2
22.03.2019 12:00:00 8,6 7,8 - 26 14 52 28 WSW 1,6
22.03.2019 11:00:00 9,2 8,3 - 28 15 48 26 SW 1,6
22.03.2019 10:00:00 9,5 8,2 - 26 14 52 28 S 2,6
22.03.2019 09:00:00 9,8 8,0 8,2 22 12 54 29 S 1,2
22.03.2019 08:00:00 10,7 7,3 - 28 15 52 28 S 0,0
22.03.2019 07:00:00 10,5 7,3 - 24 13 - - S 0,0
22.03.2019 06:00:00 10,4 7,5 - 21 11 - - S 0,0
22.03.2019 05:00:00 10,4 7,6 - 18 10 - - S 0,0
22.03.2019 04:00:00 10,1 7,8 - 22 12 - - S 0,0
22.03.2019 03:00:00 9,4 8,1 - 21 11 - - S 0,0
22.03.2019 02:00:00 9,6 7,7 - 16 9 - - S 0,0
22.03.2019 01:00:00 9,7 7,3 - 22 12 - - S 0,0
22.03.2019 00:00:00 9,8 7,2 - 21 11 - - S 0,0
21.03.2019 23:00:00 10,0 7,8 - 16 9 - - S 0,0
21.03.2019 22:00:00 10,9 8,6 - 21 11 - - S 0,0
21.03.2019 21:00:00 11,3 9,2 - 13 7 - - S 0,0
21.03.2019 20:00:00 11,4 9,7 - 18 10 - - S 0,0
21.03.2019 19:00:00 10,7 10,2 - 4 2 - - SE 0,0
21.03.2019 18:00:00 9,3 8,9 - 4 2 - - SE 0,0
21.03.2019 17:00:00 8,7 8,1 - 4 2 - - NNE 0,2
21.03.2019 16:00:00 10,1 9,2 - 5 3 - - WSW 0,2
21.03.2019 15:00:00 10,2 8,6 - 11 6 - - W 0,0
21.03.2019 14:00:00 10,8 8,9 - 5 3 - - WSW 0,0
21.03.2019 13:00:00 10,6 9,0 - 11 6 - - SSW 0,0
21.03.2019 12:00:00 10,5 9,0 - 15 8 - - SW 0,0
21.03.2019 11:00:00 10,6 9,6 - 18 10 - - SW 0,0
21.03.2019 10:00:00 9,8 8,9 - 9 5 - - SW 0,0
21.03.2019 09:00:00 9,4 9,0 7,9 8 4 - - SW 0,0
21.03.2019 08:00:00 9,3 8,9 - 18 10 - - WSW 0,6
21.03.2019 07:00:00 9,5 9,1 - 21 11 - - SW 0,2
21.03.2019 06:00:00 9,4 9,0 - 22 12 - - WSW 0,2
21.03.2019 05:00:00 9,5 9,0 - 26 14 - - SW 0,4
21.03.2019 04:00:00 9,5 9,1 - 24 13 48 26 WSW 0,2
21.03.2019 03:00:00 9,7 9,3 - 28 15 59 32 WSW 0,4
21.03.2019 02:00:00 9,6 9,2 - 29 16 55 30 WSW 0,0
21.03.2019 01:00:00 9,8 9,3 - 26 14 48 26 WSW 0,2
21.03.2019 00:00:00 9,8 9,3 - 34 18 48 26 WSW 0,6
20.03.2019 23:00:00 9,9 9,4 - 29 16 48 26 WSW 0,8
20.03.2019 22:00:00 10,0 9,3 - 24 13 46 25 WSW 0,4
20.03.2019 21:00:00 11,3 9,2 - 16 9 - - WSW 0,0
20.03.2019 20:00:00 10,5 8,9 - 13 7 - - SW 0,0
20.03.2019 19:00:00 10,8 9,9 - 21 11 48 26 SW 0,2

tt = temperature
td = dewpoint
tt -20cm = temperature -20cm
ff = wind speed
fx = gusts
dd = wind direction
rr = precipitation

Next stations